sensor_id;sensor_type;location;lat;lon;timestamp;temperature;humidity
28520;DHT22;15732;48.534;20.382;2024-03-02T00:02:17;10.40;99.90
28520;DHT22;15732;48.534;20.382;2024-03-02T00:04:48;10.40;99.90
28520;DHT22;15732;48.534;20.382;2024-03-02T00:07:20;10.40;99.90
28520;DHT22;15732;48.534;20.382;2024-03-02T00:09:47;10.40;99.90
28520;DHT22;15732;48.534;20.382;2024-03-02T00:12:15;10.40;99.90
28520;DHT22;15732;48.534;20.382;2024-03-02T00:14:42;10.40;99.90
28520;DHT22;15732;48.534;20.382;2024-03-02T00:17:25;10.40;99.90
28520;DHT22;15732;48.534;20.382;2024-03-02T00:20:04;10.50;99.90
28520;DHT22;15732;48.534;20.382;2024-03-02T00:22:35;10.50;99.90
28520;DHT22;15732;48.534;20.382;2024-03-02T00:25:04;10.50;99.90
28520;DHT22;15732;48.534;20.382;2024-03-02T00:27:31;10.50;99.90
28520;DHT22;15732;48.534;20.382;2024-03-02T00:32:52;10.50;99.90
28520;DHT22;15732;48.534;20.382;2024-03-02T00:35:20;10.40;99.90
28520;DHT22;15732;48.534;20.382;2024-03-02T00:37:49;10.50;99.90
28520;DHT22;15732;48.534;20.382;2024-03-02T00:40:20;10.50;99.90
28520;DHT22;15732;48.534;20.382;2024-03-02T00:42:51;10.50;99.90
28520;DHT22;15732;48.534;20.382;2024-03-02T00:45:18;10.50;99.90
28520;DHT22;15732;48.534;20.382;2024-03-02T00:47:46;10.50;99.90
28520;DHT22;15732;48.534;20.382;2024-03-02T00:50:17;10.50;99.90
28520;DHT22;15732;48.534;20.382;2024-03-02T00:52:46;10.50;99.90
28520;DHT22;15732;48.534;20.382;2024-03-02T00:55:14;10.50;99.90
28520;DHT22;15732;48.534;20.382;2024-03-02T00:57:42;10.50;99.90
28520;DHT22;15732;48.534;20.382;2024-03-02T01:00:12;10.60;99.90
28520;DHT22;15732;48.534;20.382;2024-03-02T01:02:41;10.50;99.90
28520;DHT22;15732;48.534;20.382;2024-03-02T01:05:10;10.50;99.90
28520;DHT22;15732;48.534;20.382;2024-03-02T01:07:38;10.60;99.90
28520;DHT22;15732;48.534;20.382;2024-03-02T01:10:06;10.60;99.90
28520;DHT22;15732;48.534;20.382;2024-03-02T01:12:34;10.60;99.90
28520;DHT22;15732;48.534;20.382;2024-03-02T01:15:02;10.50;99.90
28520;DHT22;15732;48.534;20.382;2024-03-02T01:17:32;10.50;99.90
28520;DHT22;15732;48.534;20.382;2024-03-02T01:19:59;10.60;99.90
28520;DHT22;15732;48.534;20.382;2024-03-02T01:22:27;10.50;99.90
28520;DHT22;15732;48.534;20.382;2024-03-02T01:24:58;10.40;99.90
28520;DHT22;15732;48.534;20.382;2024-03-02T01:27:25;10.40;99.90
28520;DHT22;15732;48.534;20.382;2024-03-02T01:29:56;10.40;99.90
28520;DHT22;15732;48.534;20.382;2024-03-02T01:32:28;10.40;99.90
28520;DHT22;15732;48.534;20.382;2024-03-02T01:34:56;10.40;99.90
28520;DHT22;15732;48.534;20.382;2024-03-02T01:37:23;10.40;99.90
28520;DHT22;15732;48.534;20.382;2024-03-02T01:39:50;10.40;99.90
28520;DHT22;15732;48.534;20.382;2024-03-02T01:42:18;10.40;99.90
28520;DHT22;15732;48.534;20.382;2024-03-02T01:44:49;10.30;99.90
28520;DHT22;15732;48.534;20.382;2024-03-02T01:47:20;10.30;99.90
28520;DHT22;15732;48.534;20.382;2024-03-02T01:49:51;10.40;99.90
28520;DHT22;15732;48.534;20.382;2024-03-02T01:52:22;10.30;99.90
28520;DHT22;15732;48.534;20.382;2024-03-02T01:54:53;10.30;99.90
28520;DHT22;15732;48.534;20.382;2024-03-02T01:57:21;10.30;99.90
28520;DHT22;15732;48.534;20.382;2024-03-02T01:59:52;10.30;99.90
28520;DHT22;15732;48.534;20.382;2024-03-02T02:02:23;10.30;99.90
28520;DHT22;15732;48.534;20.382;2024-03-02T02:04:54;10.40;99.90
28520;DHT22;15732;48.534;20.382;2024-03-02T02:07:25;10.40;99.90
28520;DHT22;15732;48.534;20.382;2024-03-02T02:09:56;10.40;99.90
28520;DHT22;15732;48.534;20.382;2024-03-02T02:12:24;10.40;99.90
28520;DHT22;15732;48.534;20.382;2024-03-02T02:14:51;10.30;99.90
28520;DHT22;15732;48.534;20.382;2024-03-02T02:17:19;10.30;99.90
28520;DHT22;15732;48.534;20.382;2024-03-02T02:19:50;10.30;99.90
28520;DHT22;15732;48.534;20.382;2024-03-02T02:22:20;10.30;99.90
28520;DHT22;15732;48.534;20.382;2024-03-02T02:24:48;10.20;99.90
28520;DHT22;15732;48.534;20.382;2024-03-02T02:27:15;10.30;99.90
28520;DHT22;15732;48.534;20.382;2024-03-02T02:29:42;10.20;99.90
28520;DHT22;15732;48.534;20.382;2024-03-02T02:32:09;10.20;99.90
28520;DHT22;15732;48.534;20.382;2024-03-02T02:34:37;10.20;99.90
28520;DHT22;15732;48.534;20.382;2024-03-02T02:37:08;10.20;99.90
28520;DHT22;15732;48.534;20.382;2024-03-02T02:39:39;10.20;99.90
28520;DHT22;15732;48.534;20.382;2024-03-02T02:42:10;10.20;99.90
28520;DHT22;15732;48.534;20.382;2024-03-02T02:44:37;10.10;99.90
28520;DHT22;15732;48.534;20.382;2024-03-02T02:47:08;10.10;99.90
28520;DHT22;15732;48.534;20.382;2024-03-02T02:49:40;10.10;99.90
28520;DHT22;15732;48.534;20.382;2024-03-02T02:52:11;10.10;99.90
28520;DHT22;15732;48.534;20.382;2024-03-02T02:54:38;10.00;99.90
28520;DHT22;15732;48.534;20.382;2024-03-02T02:57:06;10.10;99.90
28520;DHT22;15732;48.534;20.382;2024-03-02T02:59:33;10.10;99.90
28520;DHT22;15732;48.534;20.382;2024-03-02T03:02:02;10.00;99.90
28520;DHT22;15732;48.534;20.382;2024-03-02T03:04:30;10.10;99.90
28520;DHT22;15732;48.534;20.382;2024-03-02T03:07:01;10.00;99.90
28520;DHT22;15732;48.534;20.382;2024-03-02T03:09:28;10.00;99.90
28520;DHT22;15732;48.534;20.382;2024-03-02T03:11:55;10.00;99.90
28520;DHT22;15732;48.534;20.382;2024-03-02T03:14:27;10.00;99.90
28520;DHT22;15732;48.534;20.382;2024-03-02T03:16:54;10.00;99.90
28520;DHT22;15732;48.534;20.382;2024-03-02T03:19:25;10.10;99.90
28520;DHT22;15732;48.534;20.382;2024-03-02T03:21:52;10.00;99.90
28520;DHT22;15732;48.534;20.382;2024-03-02T03:24:23;10.00;99.90
28520;DHT22;15732;48.534;20.382;2024-03-02T03:26:54;10.00;99.90
28520;DHT22;15732;48.534;20.382;2024-03-02T03:29:25;10.00;99.90
28520;DHT22;15732;48.534;20.382;2024-03-02T03:31:57;10.00;99.90
28520;DHT22;15732;48.534;20.382;2024-03-02T03:34:28;10.00;99.90
28520;DHT22;15732;48.534;20.382;2024-03-02T03:36:59;10.00;99.90
28520;DHT22;15732;48.534;20.382;2024-03-02T03:39:30;10.00;99.90
28520;DHT22;15732;48.534;20.382;2024-03-02T03:41:57;10.00;99.90
28520;DHT22;15732;48.534;20.382;2024-03-02T03:44:24;10.00;99.90
28520;DHT22;15732;48.534;20.382;2024-03-02T03:46:51;9.90;99.90
28520;DHT22;15732;48.534;20.382;2024-03-02T03:49:22;10.00;99.90
28520;DHT22;15732;48.534;20.382;2024-03-02T03:51:53;10.00;99.90
28520;DHT22;15732;48.534;20.382;2024-03-02T03:54:21;10.00;99.90
28520;DHT22;15732;48.534;20.382;2024-03-02T03:56:48;9.90;99.90
28520;DHT22;15732;48.534;20.382;2024-03-02T03:59:15;9.90;99.90
28520;DHT22;15732;48.534;20.382;2024-03-02T04:01:47;10.00;99.90
28520;DHT22;15732;48.534;20.382;2024-03-02T04:04:14;10.00;99.90
28520;DHT22;15732;48.534;20.382;2024-03-02T04:06:46;10.00;99.90
28520;DHT22;15732;48.534;20.382;2024-03-02T04:09:17;10.00;99.90
28520;DHT22;15732;48.534;20.382;2024-03-02T04:11:48;10.00;99.90
28520;DHT22;15732;48.534;20.382;2024-03-02T04:14:15;10.00;99.90
28520;DHT22;15732;48.534;20.382;2024-03-02T04:16:46;10.00;99.90
28520;DHT22;15732;48.534;20.382;2024-03-02T04:19:17;9.90;99.90
28520;DHT22;15732;48.534;20.382;2024-03-02T04:21:44;9.90;99.90
28520;DHT22;15732;48.534;20.382;2024-03-02T04:24:15;9.80;99.90
28520;DHT22;15732;48.534;20.382;2024-03-02T04:26:46;9.80;99.90
28520;DHT22;15732;48.534;20.382;2024-03-02T04:29:18;9.80;99.90
28520;DHT22;15732;48.534;20.382;2024-03-02T04:31:49;9.80;99.90
28520;DHT22;15732;48.534;20.382;2024-03-02T04:34:20;9.80;99.90
28520;DHT22;15732;48.534;20.382;2024-03-02T04:36:51;9.80;99.90
28520;DHT22;15732;48.534;20.382;2024-03-02T04:39:22;9.80;99.90
28520;DHT22;15732;48.534;20.382;2024-03-02T04:41:51;9.90;99.90
28520;DHT22;15732;48.534;20.382;2024-03-02T04:44:22;9.80;99.90
28520;DHT22;15732;48.534;20.382;2024-03-02T04:46:53;9.80;99.90
28520;DHT22;15732;48.534;20.382;2024-03-02T04:49:20;9.80;99.90
28520;DHT22;15732;48.534;20.382;2024-03-02T04:51:51;9.80;99.90
28520;DHT22;15732;48.534;20.382;2024-03-02T04:54:22;9.70;99.90
28520;DHT22;15732;48.534;20.382;2024-03-02T04:56:49;9.70;99.90
28520;DHT22;15732;48.534;20.382;2024-03-02T04:59:17;9.70;99.90
28520;DHT22;15732;48.534;20.382;2024-03-02T05:01:45;9.70;99.90
28520;DHT22;15732;48.534;20.382;2024-03-02T05:04:12;9.60;99.90
28520;DHT22;15732;48.534;20.382;2024-03-02T05:06:43;9.70;99.90
28520;DHT22;15732;48.534;20.382;2024-03-02T05:09:10;9.70;99.90
28520;DHT22;15732;48.534;20.382;2024-03-02T05:11:38;9.70;99.90
28520;DHT22;15732;48.534;20.382;2024-03-02T05:14:10;9.70;99.90
28520;DHT22;15732;48.534;20.382;2024-03-02T05:16:37;9.70;99.90
28520;DHT22;15732;48.534;20.382;2024-03-02T05:19:27;9.70;99.90
28520;DHT22;15732;48.534;20.382;2024-03-02T05:21:58;9.70;99.90
28520;DHT22;15732;48.534;20.382;2024-03-02T05:24:25;9.70;99.90
28520;DHT22;15732;48.534;20.382;2024-03-02T05:26:55;9.70;99.90
28520;DHT22;15732;48.534;20.382;2024-03-02T05:29:27;9.70;99.90
28520;DHT22;15732;48.534;20.382;2024-03-02T05:31:58;9.70;99.90
28520;DHT22;15732;48.534;20.382;2024-03-02T05:34:29;9.80;99.90
28520;DHT22;15732;48.534;20.382;2024-03-02T05:36:57;9.80;99.90
28520;DHT22;15732;48.534;20.382;2024-03-02T05:39:24;9.80;99.90
28520;DHT22;15732;48.534;20.382;2024-03-02T05:41:55;9.90;99.90
28520;DHT22;15732;48.534;20.382;2024-03-02T05:44:26;9.80;99.90
28520;DHT22;15732;48.534;20.382;2024-03-02T05:46:54;9.90;99.90
28520;DHT22;15732;48.534;20.382;2024-03-02T05:49:25;9.80;99.90
28520;DHT22;15732;48.534;20.382;2024-03-02T05:51:56;9.80;99.90
28520;DHT22;15732;48.534;20.382;2024-03-02T05:54:27;9.90;99.90
28520;DHT22;15732;48.534;20.382;2024-03-02T05:56:58;9.90;99.90
28520;DHT22;15732;48.534;20.382;2024-03-02T05:59:43;10.00;99.90
28520;DHT22;15732;48.534;20.382;2024-03-02T06:02:14;10.00;99.90
28520;DHT22;15732;48.534;20.382;2024-03-02T06:04:45;10.00;99.90
28520;DHT22;15732;48.534;20.382;2024-03-02T06:07:13;10.00;99.90
28520;DHT22;15732;48.534;20.382;2024-03-02T06:09:41;10.10;99.90
28520;DHT22;15732;48.534;20.382;2024-03-02T06:12:09;10.10;99.90
28520;DHT22;15732;48.534;20.382;2024-03-02T06:14:40;10.10;99.90
28520;DHT22;15732;48.534;20.382;2024-03-02T06:17:11;10.10;99.90
28520;DHT22;15732;48.534;20.382;2024-03-02T06:19:38;10.20;99.90
28520;DHT22;15732;48.534;20.382;2024-03-02T06:22:10;10.20;99.90
28520;DHT22;15732;48.534;20.382;2024-03-02T06:24:37;10.20;99.90
28520;DHT22;15732;48.534;20.382;2024-03-02T06:27:07;10.20;99.90
28520;DHT22;15732;48.534;20.382;2024-03-02T06:29:38;10.20;99.90
28520;DHT22;15732;48.534;20.382;2024-03-02T06:32:05;10.10;99.90
28520;DHT22;15732;48.534;20.382;2024-03-02T06:34:33;10.10;99.90
28520;DHT22;15732;48.534;20.382;2024-03-02T06:37:00;10.00;99.90
28520;DHT22;15732;48.534;20.382;2024-03-02T06:39:27;10.00;99.90
28520;DHT22;15732;48.534;20.382;2024-03-02T06:42:19;10.00;99.90
28520;DHT22;15732;48.534;20.382;2024-03-02T06:44:47;10.00;99.90
28520;DHT22;15732;48.534;20.382;2024-03-02T06:47:14;9.90;99.90
28520;DHT22;15732;48.534;20.382;2024-03-02T06:49:42;9.90;99.90
28520;DHT22;15732;48.534;20.382;2024-03-02T06:52:10;9.90;99.90
28520;DHT22;15732;48.534;20.382;2024-03-02T06:54:37;9.80;99.90
28520;DHT22;15732;48.534;20.382;2024-03-02T06:57:04;9.80;99.90
28520;DHT22;15732;48.534;20.382;2024-03-02T06:59:31;9.80;99.90
28520;DHT22;15732;48.534;20.382;2024-03-02T07:01:59;9.80;99.90
28520;DHT22;15732;48.534;20.382;2024-03-02T07:04:27;9.90;99.90
28520;DHT22;15732;48.534;20.382;2024-03-02T07:06:54;9.90;99.90
28520;DHT22;15732;48.534;20.382;2024-03-02T07:09:21;9.90;99.90
28520;DHT22;15732;48.534;20.382;2024-03-02T07:11:49;9.90;99.90
28520;DHT22;15732;48.534;20.382;2024-03-02T07:14:20;10.00;99.90
28520;DHT22;15732;48.534;20.382;2024-03-02T07:16:48;10.00;99.90
28520;DHT22;15732;48.534;20.382;2024-03-02T07:19:16;10.00;99.90
28520;DHT22;15732;48.534;20.382;2024-03-02T07:21:43;10.00;99.90
28520;DHT22;15732;48.534;20.382;2024-03-02T07:24:14;10.00;99.90
28520;DHT22;15732;48.534;20.382;2024-03-02T07:26:46;10.00;99.90
28520;DHT22;15732;48.534;20.382;2024-03-02T07:29:13;10.00;99.90
28520;DHT22;15732;48.534;20.382;2024-03-02T07:31:44;10.10;99.90
28520;DHT22;15732;48.534;20.382;2024-03-02T07:34:11;10.20;99.90
28520;DHT22;15732;48.534;20.382;2024-03-02T07:36:42;10.20;99.90
28520;DHT22;15732;48.534;20.382;2024-03-02T07:39:14;10.30;99.90
28520;DHT22;15732;48.534;20.382;2024-03-02T07:41:45;10.30;99.90
28520;DHT22;15732;48.534;20.382;2024-03-02T07:44:13;10.30;99.90
28520;DHT22;15732;48.534;20.382;2024-03-02T07:46:44;10.30;99.90
28520;DHT22;15732;48.534;20.382;2024-03-02T07:49:24;10.40;99.90
28520;DHT22;15732;48.534;20.382;2024-03-02T07:51:51;10.40;99.90
28520;DHT22;15732;48.534;20.382;2024-03-02T07:54:18;10.40;99.90
28520;DHT22;15732;48.534;20.382;2024-03-02T07:56:45;10.40;99.90
28520;DHT22;15732;48.534;20.382;2024-03-02T07:59:16;10.40;99.90
28520;DHT22;15732;48.534;20.382;2024-03-02T08:01:44;10.50;99.90
28520;DHT22;15732;48.534;20.382;2024-03-02T08:04:11;10.50;99.90
28520;DHT22;15732;48.534;20.382;2024-03-02T08:06:38;10.50;99.90
28520;DHT22;15732;48.534;20.382;2024-03-02T08:09:05;10.50;99.90
28520;DHT22;15732;48.534;20.382;2024-03-02T08:11:39;10.50;99.90
28520;DHT22;15732;48.534;20.382;2024-03-02T08:14:06;10.50;99.90
28520;DHT22;15732;48.534;20.382;2024-03-02T08:16:34;10.50;99.90
28520;DHT22;15732;48.534;20.382;2024-03-02T08:19:05;10.50;99.90
28520;DHT22;15732;48.534;20.382;2024-03-02T08:21:32;10.40;99.90
28520;DHT22;15732;48.534;20.382;2024-03-02T08:24:02;10.40;99.90
28520;DHT22;15732;48.534;20.382;2024-03-02T08:26:29;10.40;99.90
28520;DHT22;15732;48.534;20.382;2024-03-02T08:28:58;10.40;99.90
28520;DHT22;15732;48.534;20.382;2024-03-02T08:31:28;10.40;99.90
28520;DHT22;15732;48.534;20.382;2024-03-02T08:33:55;10.40;99.90
28520;DHT22;15732;48.534;20.382;2024-03-02T08:36:23;10.40;99.90
28520;DHT22;15732;48.534;20.382;2024-03-02T08:38:50;10.40;99.90
28520;DHT22;15732;48.534;20.382;2024-03-02T08:41:18;10.30;99.90
28520;DHT22;15732;48.534;20.382;2024-03-02T08:43:45;10.30;99.90
28520;DHT22;15732;48.534;20.382;2024-03-02T08:46:12;10.30;99.90
28520;DHT22;15732;48.534;20.382;2024-03-02T08:48:39;10.40;99.90
28520;DHT22;15732;48.534;20.382;2024-03-02T08:51:07;10.40;99.90
28520;DHT22;15732;48.534;20.382;2024-03-02T08:53:37;10.40;99.90
28520;DHT22;15732;48.534;20.382;2024-03-02T08:56:05;10.40;99.90
28520;DHT22;15732;48.534;20.382;2024-03-02T08:58:33;10.30;99.90
28520;DHT22;15732;48.534;20.382;2024-03-02T09:01:00;10.30;99.90
28520;DHT22;15732;48.534;20.382;2024-03-02T09:03:28;10.40;99.90
28520;DHT22;15732;48.534;20.382;2024-03-02T09:05:55;10.40;99.90
28520;DHT22;15732;48.534;20.382;2024-03-02T09:08:27;10.40;99.90
28520;DHT22;15732;48.534;20.382;2024-03-02T09:10:54;10.40;99.90
28520;DHT22;15732;48.534;20.382;2024-03-02T09:13:25;10.40;99.90
28520;DHT22;15732;48.534;20.382;2024-03-02T09:15:53;10.50;99.90
28520;DHT22;15732;48.534;20.382;2024-03-02T09:18:24;10.50;99.90
28520;DHT22;15732;48.534;20.382;2024-03-02T09:20:51;10.50;99.90
28520;DHT22;15732;48.534;20.382;2024-03-02T09:23:19;10.50;99.90
28520;DHT22;15732;48.534;20.382;2024-03-02T09:25:46;10.50;99.90
28520;DHT22;15732;48.534;20.382;2024-03-02T09:28:13;10.40;99.90
28520;DHT22;15732;48.534;20.382;2024-03-02T09:30:45;10.40;99.90
28520;DHT22;15732;48.534;20.382;2024-03-02T09:33:17;10.40;99.90
28520;DHT22;15732;48.534;20.382;2024-03-02T09:35:44;10.40;99.90
28520;DHT22;15732;48.534;20.382;2024-03-02T09:38:11;10.40;99.90
28520;DHT22;15732;48.534;20.382;2024-03-02T09:40:39;10.40;99.90
28520;DHT22;15732;48.534;20.382;2024-03-02T09:43:11;10.40;99.90
28520;DHT22;15732;48.534;20.382;2024-03-02T09:45:38;10.30;99.90
28520;DHT22;15732;48.534;20.382;2024-03-02T09:48:07;10.30;99.90
28520;DHT22;15732;48.534;20.382;2024-03-02T09:50:34;10.20;99.90
28520;DHT22;15732;48.534;20.382;2024-03-02T09:53:05;10.20;99.90
28520;DHT22;15732;48.534;20.382;2024-03-02T09:55:37;10.20;99.90
28520;DHT22;15732;48.534;20.382;2024-03-02T09:58:13;10.20;99.90
28520;DHT22;15732;48.534;20.382;2024-03-02T10:00:40;10.20;99.90
28520;DHT22;15732;48.534;20.382;2024-03-02T10:03:12;10.30;99.90
28520;DHT22;15732;48.534;20.382;2024-03-02T10:05:39;10.20;99.90
28520;DHT22;15732;48.534;20.382;2024-03-02T10:08:10;10.30;99.90
28520;DHT22;15732;48.534;20.382;2024-03-02T10:10:38;10.30;99.90
28520;DHT22;15732;48.534;20.382;2024-03-02T10:13:11;10.30;99.90
28520;DHT22;15732;48.534;20.382;2024-03-02T10:15:39;10.30;99.90
28520;DHT22;15732;48.534;20.382;2024-03-02T10:18:10;10.30;99.90
28520;DHT22;15732;48.534;20.382;2024-03-02T10:20:39;10.40;99.90
28520;DHT22;15732;48.534;20.382;2024-03-02T10:23:29;10.40;99.90
28520;DHT22;15732;48.534;20.382;2024-03-02T10:25:56;10.50;99.90
28520;DHT22;15732;48.534;20.382;2024-03-02T10:28:24;10.50;99.90
28520;DHT22;15732;48.534;20.382;2024-03-02T10:30:57;10.60;99.90
28520;DHT22;15732;48.534;20.382;2024-03-02T10:33:25;10.70;99.90
28520;DHT22;15732;48.534;20.382;2024-03-02T10:35:57;10.80;99.90
28520;DHT22;15732;48.534;20.382;2024-03-02T10:38:25;10.80;99.90
28520;DHT22;15732;48.534;20.382;2024-03-02T10:40:52;10.90;99.90
28520;DHT22;15732;48.534;20.382;2024-03-02T10:43:22;10.90;99.90
28520;DHT22;15732;48.534;20.382;2024-03-02T10:45:49;10.90;99.90
28520;DHT22;15732;48.534;20.382;2024-03-02T10:48:17;11.00;99.90
28520;DHT22;15732;48.534;20.382;2024-03-02T10:50:44;11.00;99.90
28520;DHT22;15732;48.534;20.382;2024-03-02T10:53:15;11.00;99.90
28520;DHT22;15732;48.534;20.382;2024-03-02T10:55:42;11.00;99.90
28520;DHT22;15732;48.534;20.382;2024-03-02T10:58:14;11.10;99.90
28520;DHT22;15732;48.534;20.382;2024-03-02T11:00:42;11.10;99.90
28520;DHT22;15732;48.534;20.382;2024-03-02T11:03:11;11.10;99.90
28520;DHT22;15732;48.534;20.382;2024-03-02T11:05:44;11.20;99.90
28520;DHT22;15732;48.534;20.382;2024-03-02T11:08:17;11.20;99.90
28520;DHT22;15732;48.534;20.382;2024-03-02T11:10:50;11.20;99.90
28520;DHT22;15732;48.534;20.382;2024-03-02T11:13:27;11.20;99.90
28520;DHT22;15732;48.534;20.382;2024-03-02T11:16:28;11.20;99.90
28520;DHT22;15732;48.534;20.382;2024-03-02T11:18:59;11.30;99.90
28520;DHT22;15732;48.534;20.382;2024-03-02T11:21:27;11.20;99.90
28520;DHT22;15732;48.534;20.382;2024-03-02T11:23:54;11.20;99.90
28520;DHT22;15732;48.534;20.382;2024-03-02T11:26:22;11.10;99.90
28520;DHT22;15732;48.534;20.382;2024-03-02T11:28:51;11.10;99.90
28520;DHT22;15732;48.534;20.382;2024-03-02T11:31:18;11.10;99.90
28520;DHT22;15732;48.534;20.382;2024-03-02T11:33:46;11.10;99.90
28520;DHT22;15732;48.534;20.382;2024-03-02T11:36:17;11.10;99.90
28520;DHT22;15732;48.534;20.382;2024-03-02T11:38:44;11.10;99.90
28520;DHT22;15732;48.534;20.382;2024-03-02T11:41:13;11.10;99.90
28520;DHT22;15732;48.534;20.382;2024-03-02T11:43:41;11.10;99.90
28520;DHT22;15732;48.534;20.382;2024-03-02T11:46:08;11.20;99.90
28520;DHT22;15732;48.534;20.382;2024-03-02T11:48:39;11.20;99.90
28520;DHT22;15732;48.534;20.382;2024-03-02T11:51:11;11.20;99.90
28520;DHT22;15732;48.534;20.382;2024-03-02T11:53:39;11.30;99.90
28520;DHT22;15732;48.534;20.382;2024-03-02T11:56:07;11.40;99.90
28520;DHT22;15732;48.534;20.382;2024-03-02T11:58:36;11.40;99.90
28520;DHT22;15732;48.534;20.382;2024-03-02T12:01:07;11.50;99.90
28520;DHT22;15732;48.534;20.382;2024-03-02T12:03:39;11.50;99.90
28520;DHT22;15732;48.534;20.382;2024-03-02T12:06:10;11.50;99.90
28520;DHT22;15732;48.534;20.382;2024-03-02T12:08:43;11.60;99.90
28520;DHT22;15732;48.534;20.382;2024-03-02T12:11:12;11.70;99.90
28520;DHT22;15732;48.534;20.382;2024-03-02T12:13:40;11.70;99.90
28520;DHT22;15732;48.534;20.382;2024-03-02T12:16:07;11.70;99.90
28520;DHT22;15732;48.534;20.382;2024-03-02T12:18:38;11.80;99.90
28520;DHT22;15732;48.534;20.382;2024-03-02T12:21:08;11.80;99.90
28520;DHT22;15732;48.534;20.382;2024-03-02T12:23:39;11.80;99.90
28520;DHT22;15732;48.534;20.382;2024-03-02T12:26:07;11.80;99.90
28520;DHT22;15732;48.534;20.382;2024-03-02T12:28:34;11.80;99.90
28520;DHT22;15732;48.534;20.382;2024-03-02T12:31:01;11.80;99.90
28520;DHT22;15732;48.534;20.382;2024-03-02T12:33:29;11.80;99.90
28520;DHT22;15732;48.534;20.382;2024-03-02T12:36:00;11.80;99.90
28520;DHT22;15732;48.534;20.382;2024-03-02T12:38:27;11.80;99.90
28520;DHT22;15732;48.534;20.382;2024-03-02T12:40:56;11.80;99.90
28520;DHT22;15732;48.534;20.382;2024-03-02T12:43:30;11.80;99.90
28520;DHT22;15732;48.534;20.382;2024-03-02T12:46:17;11.80;99.90
28520;DHT22;15732;48.534;20.382;2024-03-02T12:48:52;11.90;99.90
28520;DHT22;15732;48.534;20.382;2024-03-02T12:51:20;11.90;99.90
28520;DHT22;15732;48.534;20.382;2024-03-02T12:53:54;11.90;99.90
28520;DHT22;15732;48.534;20.382;2024-03-02T12:56:22;11.90;99.90
28520;DHT22;15732;48.534;20.382;2024-03-02T12:58:56;11.90;99.90
28520;DHT22;15732;48.534;20.382;2024-03-02T13:01:23;11.90;99.90
28520;DHT22;15732;48.534;20.382;2024-03-02T13:03:54;11.90;99.90
28520;DHT22;15732;48.534;20.382;2024-03-02T13:06:26;11.90;99.90
28520;DHT22;15732;48.534;20.382;2024-03-02T13:08:54;12.00;99.90
28520;DHT22;15732;48.534;20.382;2024-03-02T13:11:22;12.00;99.90
28520;DHT22;15732;48.534;20.382;2024-03-02T13:13:52;12.00;99.90
28520;DHT22;15732;48.534;20.382;2024-03-02T13:16:20;12.00;99.90
28520;DHT22;15732;48.534;20.382;2024-03-02T13:18:47;12.00;99.90
28520;DHT22;15732;48.534;20.382;2024-03-02T13:21:18;12.00;99.90
28520;DHT22;15732;48.534;20.382;2024-03-02T13:23:49;12.00;99.90
28520;DHT22;15732;48.534;20.382;2024-03-02T13:26:20;12.00;99.90
28520;DHT22;15732;48.534;20.382;2024-03-02T13:28:47;12.00;99.90
28520;DHT22;15732;48.534;20.382;2024-03-02T13:31:14;12.10;99.90
28520;DHT22;15732;48.534;20.382;2024-03-02T13:33:42;12.10;99.90
28520;DHT22;15732;48.534;20.382;2024-03-02T13:36:13;12.10;99.90
28520;DHT22;15732;48.534;20.382;2024-03-02T13:38:40;12.10;99.90
28520;DHT22;15732;48.534;20.382;2024-03-02T13:41:07;12.10;99.90
28520;DHT22;15732;48.534;20.382;2024-03-02T13:43:34;12.10;99.90
28520;DHT22;15732;48.534;20.382;2024-03-02T13:46:07;12.20;99.90
28520;DHT22;15732;48.534;20.382;2024-03-02T13:48:34;12.20;99.90
28520;DHT22;15732;48.534;20.382;2024-03-02T13:51:01;12.20;99.90
28520;DHT22;15732;48.534;20.382;2024-03-02T13:53:29;12.20;99.90
28520;DHT22;15732;48.534;20.382;2024-03-02T13:56:02;12.20;99.90
28520;DHT22;15732;48.534;20.382;2024-03-02T13:58:29;12.30;99.90
28520;DHT22;15732;48.534;20.382;2024-03-02T14:00:57;12.20;99.90
28520;DHT22;15732;48.534;20.382;2024-03-02T14:03:25;12.30;99.90
28520;DHT22;15732;48.534;20.382;2024-03-02T14:05:54;12.20;99.90
28520;DHT22;15732;48.534;20.382;2024-03-02T14:08:22;12.20;99.90
28520;DHT22;15732;48.534;20.382;2024-03-02T14:10:49;12.20;99.90
28520;DHT22;15732;48.534;20.382;2024-03-02T14:13:17;12.20;99.90
28520;DHT22;15732;48.534;20.382;2024-03-02T14:15:48;12.20;99.90
28520;DHT22;15732;48.534;20.382;2024-03-02T14:18:15;12.20;99.90
28520;DHT22;15732;48.534;20.382;2024-03-02T14:20:42;12.20;99.90
28520;DHT22;15732;48.534;20.382;2024-03-02T14:23:10;12.30;99.90
28520;DHT22;15732;48.534;20.382;2024-03-02T14:25:41;12.30;99.90
28520;DHT22;15732;48.534;20.382;2024-03-02T14:28:11;12.30;99.90
28520;DHT22;15732;48.534;20.382;2024-03-02T14:30:42;12.30;99.90
28520;DHT22;15732;48.534;20.382;2024-03-02T14:33:09;12.30;99.90
28520;DHT22;15732;48.534;20.382;2024-03-02T14:35:37;12.30;99.90
28520;DHT22;15732;48.534;20.382;2024-03-02T14:38:09;12.30;99.90
28520;DHT22;15732;48.534;20.382;2024-03-02T14:40:40;12.30;99.90
28520;DHT22;15732;48.534;20.382;2024-03-02T14:43:07;12.30;99.90
28520;DHT22;15732;48.534;20.382;2024-03-02T14:45:34;12.20;99.90
28520;DHT22;15732;48.534;20.382;2024-03-02T14:48:01;12.30;99.90
28520;DHT22;15732;48.534;20.382;2024-03-02T14:50:29;12.20;99.90
28520;DHT22;15732;48.534;20.382;2024-03-02T14:53:00;12.20;99.90
28520;DHT22;15732;48.534;20.382;2024-03-02T14:55:28;12.20;99.90
28520;DHT22;15732;48.534;20.382;2024-03-02T14:58:00;12.20;99.90
28520;DHT22;15732;48.534;20.382;2024-03-02T15:00:31;12.20;99.90
28520;DHT22;15732;48.534;20.382;2024-03-02T15:02:58;12.20;99.90
28520;DHT22;15732;48.534;20.382;2024-03-02T15:05:30;12.10;99.90
28520;DHT22;15732;48.534;20.382;2024-03-02T15:07:58;12.10;99.90
28520;DHT22;15732;48.534;20.382;2024-03-02T15:10:28;12.10;99.90
28520;DHT22;15732;48.534;20.382;2024-03-02T15:12:59;12.10;99.90
28520;DHT22;15732;48.534;20.382;2024-03-02T15:15:30;12.10;99.90
28520;DHT22;15732;48.534;20.382;2024-03-02T15:17:57;12.10;99.90
28520;DHT22;15732;48.534;20.382;2024-03-02T15:20:24;12.10;99.90
28520;DHT22;15732;48.534;20.382;2024-03-02T15:22:55;12.10;99.90
28520;DHT22;15732;48.534;20.382;2024-03-02T15:25:27;12.10;99.90
28520;DHT22;15732;48.534;20.382;2024-03-02T15:27:54;12.10;99.90
28520;DHT22;15732;48.534;20.382;2024-03-02T15:30:21;12.10;99.90
28520;DHT22;15732;48.534;20.382;2024-03-02T15:32:52;12.10;99.90
28520;DHT22;15732;48.534;20.382;2024-03-02T15:35:20;12.10;99.90